Country
Station

 

Weather  for  Marquette  -  United States    United States

  
0 °C (32 °F)
    
 
 

Current METAR for Marquette is :

KMQT 222250Z 14004KT 10SM SKC 00/M07 A3004

 

This is a report for Marquette - United States.
 
The report was made 588 hours and 28 minutes ago, at 22:50 UTC .
The wind was blowing at a speed of 2.1 meters per second (4.6 miles per hour) from southeast (140°).
 
The temperature was 0 °C (32 °F), with a dew-point at -7 °C (19 °F).
The temperature felt like -3 °C (27 °F).
 
The atmospheric pressure was 1017 hPa (30.04 inHg).
The sky was clear.
 
The overall visibility was 16.1 kilometers (10.0 miles).
 

 
 
 
 

Country :   A   B   C   D   E   F   G   H   I   J   K   L   M   N   O   P   Q   R   S   T   U   V   W   Y   Z

 

Site Info  |  Disclaimer  |  Credits  |  Privacy
Contact us  |  Add to favorites
© 2013-2018 METARs - All rights reserved